sensor_id;sensor_type;location;lat;lon;timestamp;P1;durP1;ratioP1;P2;durP2;ratioP2
7933;SDS011;4012;48.896;9.192;2022-08-19T00:00:00;12.60;;;11.13;;
7933;SDS011;4012;48.896;9.192;2022-08-19T00:02:26;12.23;;;10.93;;
7933;SDS011;4012;48.896;9.192;2022-08-19T00:04:52;12.03;;;10.73;;
7933;SDS011;4012;48.896;9.192;2022-08-19T00:07:18;11.70;;;10.60;;
7933;SDS011;4012;48.896;9.192;2022-08-19T00:09:44;12.90;;;11.60;;
7933;SDS011;4012;48.896;9.192;2022-08-19T00:12:10;12.07;;;10.73;;
7933;SDS011;4012;48.896;9.192;2022-08-19T00:14:36;13.80;;;11.30;;
7933;SDS011;4012;48.896;9.192;2022-08-19T00:17:03;12.87;;;11.70;;
7933;SDS011;4012;48.896;9.192;2022-08-19T00:19:30;12.70;;;11.50;;
7933;SDS011;4012;48.896;9.192;2022-08-19T00:21:56;13.57;;;12.27;;
7933;SDS011;4012;48.896;9.192;2022-08-19T00:24:21;13.23;;;11.30;;
7933;SDS011;4012;48.896;9.192;2022-08-19T00:26:47;12.97;;;11.77;;
7933;SDS011;4012;48.896;9.192;2022-08-19T00:29:14;12.87;;;11.67;;
7933;SDS011;4012;48.896;9.192;2022-08-19T00:31:41;12.50;;;11.27;;
7933;SDS011;4012;48.896;9.192;2022-08-19T00:34:08;12.80;;;11.70;;
7933;SDS011;4012;48.896;9.192;2022-08-19T00:36:34;13.23;;;11.93;;
7933;SDS011;4012;48.896;9.192;2022-08-19T00:39:00;13.27;;;12.07;;
7933;SDS011;4012;48.896;9.192;2022-08-19T00:41:25;13.03;;;11.33;;
7933;SDS011;4012;48.896;9.192;2022-08-19T00:43:58;12.63;;;11.33;;
7933;SDS011;4012;48.896;9.192;2022-08-19T00:46:30;12.40;;;11.23;;
7933;SDS011;4012;48.896;9.192;2022-08-19T00:48:58;12.50;;;10.87;;
7933;SDS011;4012;48.896;9.192;2022-08-19T00:51:26;12.87;;;11.43;;
7933;SDS011;4012;48.896;9.192;2022-08-19T00:53:55;12.10;;;10.90;;
7933;SDS011;4012;48.896;9.192;2022-08-19T00:56:23;12.73;;;11.63;;
7933;SDS011;4012;48.896;9.192;2022-08-19T00:58:48;12.67;;;11.47;;
7933;SDS011;4012;48.896;9.192;2022-08-19T01:01:15;14.03;;;11.83;;
7933;SDS011;4012;48.896;9.192;2022-08-19T01:03:40;13.27;;;11.60;;
7933;SDS011;4012;48.896;9.192;2022-08-19T01:06:06;14.80;;;11.33;;
7933;SDS011;4012;48.896;9.192;2022-08-19T01:08:33;13.43;;;12.13;;
7933;SDS011;4012;48.896;9.192;2022-08-19T01:10:59;14.03;;;12.60;;
7933;SDS011;4012;48.896;9.192;2022-08-19T01:13:26;13.20;;;11.87;;
7933;SDS011;4012;48.896;9.192;2022-08-19T01:15:59;12.97;;;11.77;;
7933;SDS011;4012;48.896;9.192;2022-08-19T01:18:27;13.07;;;11.87;;
7933;SDS011;4012;48.896;9.192;2022-08-19T01:20:56;14.07;;;12.53;;
7933;SDS011;4012;48.896;9.192;2022-08-19T01:23:26;15.00;;;11.77;;
7933;SDS011;4012;48.896;9.192;2022-08-19T01:26:07;14.60;;;11.93;;
7933;SDS011;4012;48.896;9.192;2022-08-19T01:28:36;13.00;;;11.70;;
7933;SDS011;4012;48.896;9.192;2022-08-19T01:31:03;14.37;;;12.87;;
7933;SDS011;4012;48.896;9.192;2022-08-19T01:33:30;13.87;;;12.00;;
7933;SDS011;4012;48.896;9.192;2022-08-19T01:36:10;14.00;;;12.53;;
7933;SDS011;4012;48.896;9.192;2022-08-19T01:38:39;14.83;;;12.73;;
7933;SDS011;4012;48.896;9.192;2022-08-19T01:41:07;13.80;;;12.40;;
7933;SDS011;4012;48.896;9.192;2022-08-19T01:43:34;15.23;;;13.60;;
7933;SDS011;4012;48.896;9.192;2022-08-19T01:45:59;15.17;;;13.33;;
7933;SDS011;4012;48.896;9.192;2022-08-19T01:48:25;14.33;;;13.03;;
7933;SDS011;4012;48.896;9.192;2022-08-19T01:50:54;14.83;;;12.93;;
7933;SDS011;4012;48.896;9.192;2022-08-19T01:53:19;14.57;;;13.17;;
7933;SDS011;4012;48.896;9.192;2022-08-19T01:55:45;15.73;;;14.13;;
7933;SDS011;4012;48.896;9.192;2022-08-19T01:58:14;15.93;;;14.33;;
7933;SDS011;4012;48.896;9.192;2022-08-19T02:00:44;15.10;;;13.50;;
7933;SDS011;4012;48.896;9.192;2022-08-19T02:03:10;16.30;;;13.83;;
7933;SDS011;4012;48.896;9.192;2022-08-19T02:05:36;15.03;;;13.40;;
7933;SDS011;4012;48.896;9.192;2022-08-19T02:08:02;15.13;;;13.63;;
7933;SDS011;4012;48.896;9.192;2022-08-19T02:10:28;20.27;;;14.23;;
7933;SDS011;4012;48.896;9.192;2022-08-19T02:12:54;15.80;;;14.20;;
7933;SDS011;4012;48.896;9.192;2022-08-19T02:15:20;17.70;;;15.00;;
7933;SDS011;4012;48.896;9.192;2022-08-19T02:17:46;17.10;;;15.27;;
7933;SDS011;4012;48.896;9.192;2022-08-19T02:20:13;17.63;;;14.20;;
7933;SDS011;4012;48.896;9.192;2022-08-19T02:22:39;15.13;;;13.53;;
7933;SDS011;4012;48.896;9.192;2022-08-19T02:25:07;17.30;;;15.47;;
7933;SDS011;4012;48.896;9.192;2022-08-19T02:27:35;17.80;;;15.70;;
7933;SDS011;4012;48.896;9.192;2022-08-19T02:30:01;17.27;;;15.57;;
7933;SDS011;4012;48.896;9.192;2022-08-19T02:32:27;16.97;;;15.27;;
7933;SDS011;4012;48.896;9.192;2022-08-19T02:34:55;17.67;;;15.97;;
7933;SDS011;4012;48.896;9.192;2022-08-19T02:37:21;17.23;;;15.03;;
7933;SDS011;4012;48.896;9.192;2022-08-19T02:40:05;16.70;;;14.77;;
7933;SDS011;4012;48.896;9.192;2022-08-19T02:42:31;17.90;;;16.20;;
7933;SDS011;4012;48.896;9.192;2022-08-19T02:44:57;17.60;;;15.90;;
7933;SDS011;4012;48.896;9.192;2022-08-19T02:47:23;20.87;;;16.23;;
7933;SDS011;4012;48.896;9.192;2022-08-19T02:49:48;18.03;;;16.17;;
7933;SDS011;4012;48.896;9.192;2022-08-19T02:52:17;19.70;;;16.47;;
7933;SDS011;4012;48.896;9.192;2022-08-19T02:54:42;18.00;;;16.10;;
7933;SDS011;4012;48.896;9.192;2022-08-19T02:57:08;19.67;;;17.07;;
7933;SDS011;4012;48.896;9.192;2022-08-19T02:59:34;18.20;;;16.43;;
7933;SDS011;4012;48.896;9.192;2022-08-19T03:02:00;18.83;;;16.83;;
7933;SDS011;4012;48.896;9.192;2022-08-19T03:04:25;21.03;;;16.70;;
7933;SDS011;4012;48.896;9.192;2022-08-19T03:06:51;19.00;;;17.10;;
7933;SDS011;4012;48.896;9.192;2022-08-19T03:09:17;20.03;;;17.93;;
7933;SDS011;4012;48.896;9.192;2022-08-19T03:11:44;22.53;;;17.97;;
7933;SDS011;4012;48.896;9.192;2022-08-19T03:14:11;21.03;;;18.83;;
7933;SDS011;4012;48.896;9.192;2022-08-19T03:16:42;20.53;;;18.03;;
7933;SDS011;4012;48.896;9.192;2022-08-19T03:19:09;20.50;;;18.50;;
7933;SDS011;4012;48.896;9.192;2022-08-19T03:21:35;20.43;;;17.97;;
7933;SDS011;4012;48.896;9.192;2022-08-19T03:24:02;19.87;;;17.87;;
7933;SDS011;4012;48.896;9.192;2022-08-19T03:26:30;21.53;;;18.93;;
7933;SDS011;4012;48.896;9.192;2022-08-19T03:28:56;21.03;;;18.83;;
7933;SDS011;4012;48.896;9.192;2022-08-19T03:31:23;20.27;;;18.17;;
7933;SDS011;4012;48.896;9.192;2022-08-19T03:33:50;22.00;;;19.83;;
7933;SDS011;4012;48.896;9.192;2022-08-19T03:36:17;23.20;;;20.17;;
7933;SDS011;4012;48.896;9.192;2022-08-19T03:38:46;21.30;;;19.13;;
7933;SDS011;4012;48.896;9.192;2022-08-19T03:41:17;20.80;;;18.70;;
7933;SDS011;4012;48.896;9.192;2022-08-19T03:43:44;21.70;;;19.13;;
7933;SDS011;4012;48.896;9.192;2022-08-19T03:46:19;20.40;;;18.10;;
7933;SDS011;4012;48.896;9.192;2022-08-19T03:48:48;20.70;;;18.53;;
7933;SDS011;4012;48.896;9.192;2022-08-19T03:51:26;22.00;;;19.60;;
7933;SDS011;4012;48.896;9.192;2022-08-19T03:53:56;21.17;;;18.97;;
7933;SDS011;4012;48.896;9.192;2022-08-19T03:56:23;21.73;;;19.60;;
7933;SDS011;4012;48.896;9.192;2022-08-19T03:58:51;23.03;;;20.73;;
7933;SDS011;4012;48.896;9.192;2022-08-19T04:01:18;22.43;;;20.07;;
7933;SDS011;4012;48.896;9.192;2022-08-19T04:03:46;24.63;;;20.60;;
7933;SDS011;4012;48.896;9.192;2022-08-19T04:06:13;22.20;;;20.00;;
7933;SDS011;4012;48.896;9.192;2022-08-19T04:08:44;22.63;;;20.47;;
7933;SDS011;4012;48.896;9.192;2022-08-19T04:11:12;22.53;;;20.40;;
7933;SDS011;4012;48.896;9.192;2022-08-19T04:13:39;24.83;;;20.63;;
7933;SDS011;4012;48.896;9.192;2022-08-19T04:16:06;23.50;;;21.03;;
7933;SDS011;4012;48.896;9.192;2022-08-19T04:18:35;22.00;;;19.97;;
7933;SDS011;4012;48.896;9.192;2022-08-19T04:21:01;22.13;;;19.83;;
7933;SDS011;4012;48.896;9.192;2022-08-19T04:23:29;23.37;;;18.97;;
7933;SDS011;4012;48.896;9.192;2022-08-19T04:25:55;22.13;;;19.93;;
7933;SDS011;4012;48.896;9.192;2022-08-19T04:28:21;22.93;;;20.53;;
7933;SDS011;4012;48.896;9.192;2022-08-19T04:30:49;22.80;;;20.30;;
7933;SDS011;4012;48.896;9.192;2022-08-19T04:33:19;23.73;;;21.30;;
7933;SDS011;4012;48.896;9.192;2022-08-19T04:35:46;22.80;;;20.50;;
7933;SDS011;4012;48.896;9.192;2022-08-19T04:38:13;24.50;;;20.97;;
7933;SDS011;4012;48.896;9.192;2022-08-19T04:40:43;25.13;;;21.17;;
7933;SDS011;4012;48.896;9.192;2022-08-19T04:43:34;22.90;;;20.57;;
7933;SDS011;4012;48.896;9.192;2022-08-19T04:46:05;22.20;;;19.90;;
7933;SDS011;4012;48.896;9.192;2022-08-19T04:48:35;22.43;;;19.97;;
7933;SDS011;4012;48.896;9.192;2022-08-19T04:51:05;22.70;;;20.40;;
7933;SDS011;4012;48.896;9.192;2022-08-19T04:53:33;23.07;;;20.03;;
7933;SDS011;4012;48.896;9.192;2022-08-19T04:56:03;33.97;;;21.43;;
7933;SDS011;4012;48.896;9.192;2022-08-19T04:58:32;23.77;;;21.33;;
7933;SDS011;4012;48.896;9.192;2022-08-19T05:00:57;22.57;;;20.47;;
7933;SDS011;4012;48.896;9.192;2022-08-19T05:03:25;22.80;;;20.53;;
7933;SDS011;4012;48.896;9.192;2022-08-19T05:05:51;23.17;;;20.93;;
7933;SDS011;4012;48.896;9.192;2022-08-19T05:08:18;22.00;;;19.80;;
7933;SDS011;4012;48.896;9.192;2022-08-19T05:10:48;21.83;;;19.53;;
7933;SDS011;4012;48.896;9.192;2022-08-19T05:13:16;27.17;;;20.57;;
7933;SDS011;4012;48.896;9.192;2022-08-19T05:15:44;23.47;;;20.77;;
7933;SDS011;4012;48.896;9.192;2022-08-19T05:18:18;22.07;;;19.80;;
7933;SDS011;4012;48.896;9.192;2022-08-19T05:21:05;22.70;;;19.97;;
7933;SDS011;4012;48.896;9.192;2022-08-19T05:23:53;22.90;;;20.53;;
7933;SDS011;4012;48.896;9.192;2022-08-19T05:26:18;21.23;;;19.20;;
7933;SDS011;4012;48.896;9.192;2022-08-19T05:28:44;22.87;;;20.47;;
7933;SDS011;4012;48.896;9.192;2022-08-19T05:31:10;21.87;;;19.67;;
7933;SDS011;4012;48.896;9.192;2022-08-19T05:33:35;22.47;;;20.27;;
7933;SDS011;4012;48.896;9.192;2022-08-19T05:36:02;24.50;;;20.30;;
7933;SDS011;4012;48.896;9.192;2022-08-19T05:38:28;21.13;;;18.87;;
7933;SDS011;4012;48.896;9.192;2022-08-19T05:40:55;21.67;;;19.50;;
7933;SDS011;4012;48.896;9.192;2022-08-19T05:43:20;21.50;;;19.27;;
7933;SDS011;4012;48.896;9.192;2022-08-19T05:45:46;20.87;;;18.93;;
7933;SDS011;4012;48.896;9.192;2022-08-19T05:48:12;22.47;;;19.73;;
7933;SDS011;4012;48.896;9.192;2022-08-19T05:50:39;22.40;;;20.20;;
7933;SDS011;4012;48.896;9.192;2022-08-19T05:53:06;22.80;;;20.47;;
7933;SDS011;4012;48.896;9.192;2022-08-19T05:55:33;25.50;;;21.17;;
7933;SDS011;4012;48.896;9.192;2022-08-19T05:57:59;22.43;;;20.17;;
7933;SDS011;4012;48.896;9.192;2022-08-19T06:00:26;22.43;;;20.33;;
7933;SDS011;4012;48.896;9.192;2022-08-19T06:02:52;22.87;;;20.57;;
7933;SDS011;4012;48.896;9.192;2022-08-19T06:05:20;21.57;;;19.47;;
7933;SDS011;4012;48.896;9.192;2022-08-19T06:07:46;23.73;;;21.13;;
7933;SDS011;4012;48.896;9.192;2022-08-19T06:10:11;22.53;;;20.23;;
7933;SDS011;4012;48.896;9.192;2022-08-19T06:12:37;21.93;;;19.70;;
7933;SDS011;4012;48.896;9.192;2022-08-19T06:15:10;23.30;;;21.10;;
7933;SDS011;4012;48.896;9.192;2022-08-19T06:17:38;23.17;;;20.93;;
7933;SDS011;4012;48.896;9.192;2022-08-19T06:20:05;23.10;;;20.90;;
7933;SDS011;4012;48.896;9.192;2022-08-19T06:22:36;23.87;;;20.47;;
7933;SDS011;4012;48.896;9.192;2022-08-19T06:25:03;21.80;;;19.73;;
7933;SDS011;4012;48.896;9.192;2022-08-19T06:27:29;21.83;;;19.73;;
7933;SDS011;4012;48.896;9.192;2022-08-19T06:29:56;22.07;;;19.77;;
7933;SDS011;4012;48.896;9.192;2022-08-19T06:32:22;22.27;;;20.17;;
7933;SDS011;4012;48.896;9.192;2022-08-19T06:34:47;22.70;;;20.13;;
7933;SDS011;4012;48.896;9.192;2022-08-19T06:37:13;23.40;;;21.03;;
7933;SDS011;4012;48.896;9.192;2022-08-19T06:39:43;21.97;;;19.87;;
7933;SDS011;4012;48.896;9.192;2022-08-19T06:42:09;22.00;;;19.67;;
7933;SDS011;4012;48.896;9.192;2022-08-19T06:44:38;23.13;;;20.83;;
7933;SDS011;4012;48.896;9.192;2022-08-19T06:47:07;22.17;;;19.87;;
7933;SDS011;4012;48.896;9.192;2022-08-19T06:49:34;23.20;;;20.70;;
7933;SDS011;4012;48.896;9.192;2022-08-19T06:52:01;22.77;;;20.60;;
7933;SDS011;4012;48.896;9.192;2022-08-19T06:54:27;23.07;;;20.77;;
7933;SDS011;4012;48.896;9.192;2022-08-19T06:56:54;21.57;;;19.27;;
7933;SDS011;4012;48.896;9.192;2022-08-19T06:59:21;24.67;;;19.70;;
7933;SDS011;4012;48.896;9.192;2022-08-19T07:01:52;23.93;;;20.23;;
7933;SDS011;4012;48.896;9.192;2022-08-19T07:04:20;20.77;;;18.87;;
7933;SDS011;4012;48.896;9.192;2022-08-19T07:06:56;21.73;;;19.53;;
7933;SDS011;4012;48.896;9.192;2022-08-19T07:09:23;19.40;;;17.50;;
7933;SDS011;4012;48.896;9.192;2022-08-19T07:11:50;21.93;;;19.73;;
7933;SDS011;4012;48.896;9.192;2022-08-19T07:14:18;21.63;;;19.50;;
7933;SDS011;4012;48.896;9.192;2022-08-19T07:16:47;20.80;;;18.60;;
7933;SDS011;4012;48.896;9.192;2022-08-19T07:19:14;20.23;;;18.37;;
7933;SDS011;4012;48.896;9.192;2022-08-19T07:21:40;20.73;;;18.80;;
7933;SDS011;4012;48.896;9.192;2022-08-19T07:24:06;20.13;;;17.87;;
7933;SDS011;4012;48.896;9.192;2022-08-19T07:26:33;19.83;;;17.90;;
7933;SDS011;4012;48.896;9.192;2022-08-19T07:29:04;20.30;;;17.70;;
7933;SDS011;4012;48.896;9.192;2022-08-19T07:31:30;21.63;;;17.57;;
7933;SDS011;4012;48.896;9.192;2022-08-19T07:34:01;20.83;;;18.50;;
7933;SDS011;4012;48.896;9.192;2022-08-19T07:36:32;19.37;;;17.40;;
7933;SDS011;4012;48.896;9.192;2022-08-19T07:39:02;19.37;;;17.47;;
7933;SDS011;4012;48.896;9.192;2022-08-19T07:41:30;20.67;;;18.67;;
7933;SDS011;4012;48.896;9.192;2022-08-19T07:43:57;21.23;;;17.97;;
7933;SDS011;4012;48.896;9.192;2022-08-19T07:46:28;18.80;;;16.77;;
7933;SDS011;4012;48.896;9.192;2022-08-19T07:48:57;19.43;;;17.53;;
7933;SDS011;4012;48.896;9.192;2022-08-19T07:51:23;18.67;;;16.93;;
7933;SDS011;4012;48.896;9.192;2022-08-19T07:53:49;19.40;;;17.23;;
7933;SDS011;4012;48.896;9.192;2022-08-19T07:56:16;19.10;;;17.10;;
7933;SDS011;4012;48.896;9.192;2022-08-19T07:58:44;17.80;;;16.03;;
7933;SDS011;4012;48.896;9.192;2022-08-19T08:01:12;18.77;;;16.80;;
7933;SDS011;4012;48.896;9.192;2022-08-19T08:03:40;17.67;;;15.60;;
7933;SDS011;4012;48.896;9.192;2022-08-19T08:06:25;17.80;;;15.90;;
7933;SDS011;4012;48.896;9.192;2022-08-19T08:09:10;16.47;;;14.77;;
7933;SDS011;4012;48.896;9.192;2022-08-19T08:11:38;17.00;;;15.27;;
7933;SDS011;4012;48.896;9.192;2022-08-19T08:14:04;17.97;;;16.23;;
7933;SDS011;4012;48.896;9.192;2022-08-19T08:16:33;16.83;;;15.13;;
7933;SDS011;4012;48.896;9.192;2022-08-19T08:19:05;17.43;;;15.73;;
7933;SDS011;4012;48.896;9.192;2022-08-19T08:21:32;17.47;;;15.50;;
7933;SDS011;4012;48.896;9.192;2022-08-19T08:23:58;16.70;;;15.00;;
7933;SDS011;4012;48.896;9.192;2022-08-19T08:26:24;16.57;;;14.70;;
7933;SDS011;4012;48.896;9.192;2022-08-19T08:28:51;17.20;;;14.70;;
7933;SDS011;4012;48.896;9.192;2022-08-19T08:31:17;16.73;;;14.80;;
7933;SDS011;4012;48.896;9.192;2022-08-19T08:33:47;17.43;;;13.97;;
7933;SDS011;4012;48.896;9.192;2022-08-19T08:36:13;16.60;;;14.90;;
7933;SDS011;4012;48.896;9.192;2022-08-19T08:38:39;15.67;;;14.07;;
7933;SDS011;4012;48.896;9.192;2022-08-19T08:41:15;16.70;;;15.10;;
7933;SDS011;4012;48.896;9.192;2022-08-19T08:43:53;16.40;;;14.70;;
7933;SDS011;4012;48.896;9.192;2022-08-19T08:46:25;15.10;;;13.57;;
7933;SDS011;4012;48.896;9.192;2022-08-19T08:49:07;15.67;;;14.20;;
7933;SDS011;4012;48.896;9.192;2022-08-19T08:51:40;16.53;;;14.40;;
7933;SDS011;4012;48.896;9.192;2022-08-19T08:54:11;18.00;;;14.40;;
7933;SDS011;4012;48.896;9.192;2022-08-19T08:56:39;15.53;;;13.90;;
7933;SDS011;4012;48.896;9.192;2022-08-19T08:59:07;15.70;;;14.10;;
7933;SDS011;4012;48.896;9.192;2022-08-19T09:01:42;16.30;;;13.90;;
7933;SDS011;4012;48.896;9.192;2022-08-19T09:04:08;16.37;;;14.67;;
7933;SDS011;4012;48.896;9.192;2022-08-19T09:14:36;15.07;;;12.77;;
7933;SDS011;4012;48.896;9.192;2022-08-19T09:17:22;14.73;;;12.97;;
7933;SDS011;4012;48.896;9.192;2022-08-19T09:22:32;14.30;;;12.57;;
7933;SDS011;4012;48.896;9.192;2022-08-19T09:24:58;14.50;;;12.50;;
7933;SDS011;4012;48.896;9.192;2022-08-19T09:27:25;14.63;;;12.33;;
7933;SDS011;4012;48.896;9.192;2022-08-19T09:29:52;14.20;;;12.70;;
7933;SDS011;4012;48.896;9.192;2022-08-19T09:32:19;14.27;;;12.83;;
7933;SDS011;4012;48.896;9.192;2022-08-19T09:34:45;15.33;;;12.23;;
7933;SDS011;4012;48.896;9.192;2022-08-19T09:37:11;14.20;;;12.00;;
7933;SDS011;4012;48.896;9.192;2022-08-19T09:39:37;13.43;;;11.73;;
7933;SDS011;4012;48.896;9.192;2022-08-19T09:42:06;17.13;;;12.10;;
7933;SDS011;4012;48.896;9.192;2022-08-19T09:44:37;14.60;;;11.90;;
7933;SDS011;4012;48.896;9.192;2022-08-19T09:47:03;15.13;;;12.07;;
7933;SDS011;4012;48.896;9.192;2022-08-19T09:49:29;13.57;;;11.97;;
7933;SDS011;4012;48.896;9.192;2022-08-19T09:51:56;16.17;;;11.87;;
7933;SDS011;4012;48.896;9.192;2022-08-19T09:54:22;13.80;;;12.10;;
7933;SDS011;4012;48.896;9.192;2022-08-19T09:56:48;12.50;;;11.30;;
7933;SDS011;4012;48.896;9.192;2022-08-19T09:59:14;16.97;;;10.87;;
7933;SDS011;4012;48.896;9.192;2022-08-19T10:01:40;13.33;;;10.73;;
7933;SDS011;4012;48.896;9.192;2022-08-19T10:04:06;12.87;;;11.33;;
7933;SDS011;4012;48.896;9.192;2022-08-19T10:06:36;11.87;;;10.67;;
7933;SDS011;4012;48.896;9.192;2022-08-19T10:09:04;14.27;;;10.23;;
7933;SDS011;4012;48.896;9.192;2022-08-19T10:11:32;12.17;;;10.97;;
7933;SDS011;4012;48.896;9.192;2022-08-19T10:14:03;13.90;;;11.60;;
7933;SDS011;4012;48.896;9.192;2022-08-19T10:16:30;11.73;;;10.57;;
7933;SDS011;4012;48.896;9.192;2022-08-19T10:18:57;11.73;;;10.63;;
7933;SDS011;4012;48.896;9.192;2022-08-19T10:21:27;13.00;;;10.33;;
7933;SDS011;4012;48.896;9.192;2022-08-19T10:23:56;14.47;;;11.60;;
7933;SDS011;4012;48.896;9.192;2022-08-19T10:26:24;15.50;;;11.37;;
7933;SDS011;4012;48.896;9.192;2022-08-19T10:28:51;13.83;;;10.40;;
7933;SDS011;4012;48.896;9.192;2022-08-19T10:31:22;11.07;;;9.97;;
7933;SDS011;4012;48.896;9.192;2022-08-19T10:33:50;15.17;;;9.47;;
7933;SDS011;4012;48.896;9.192;2022-08-19T10:36:22;11.97;;;9.90;;
7933;SDS011;4012;48.896;9.192;2022-08-19T10:38:54;10.73;;;9.33;;
7933;SDS011;4012;48.896;9.192;2022-08-19T10:41:24;10.60;;;9.40;;
7933;SDS011;4012;48.896;9.192;2022-08-19T10:43:52;13.47;;;9.03;;
7933;SDS011;4012;48.896;9.192;2022-08-19T10:46:19;9.60;;;8.03;;
7933;SDS011;4012;48.896;9.192;2022-08-19T10:48:47;8.93;;;7.50;;
7933;SDS011;4012;48.896;9.192;2022-08-19T10:51:13;11.77;;;7.13;;
7933;SDS011;4012;48.896;9.192;2022-08-19T10:53:57;10.47;;;6.50;;
7933;SDS011;4012;48.896;9.192;2022-08-19T10:56:25;12.47;;;6.20;;
7933;SDS011;4012;48.896;9.192;2022-08-19T10:59:11;7.97;;;6.10;;
7933;SDS011;4012;48.896;9.192;2022-08-19T11:01:38;7.03;;;5.57;;
7933;SDS011;4012;48.896;9.192;2022-08-19T11:04:05;6.30;;;5.70;;
7933;SDS011;4012;48.896;9.192;2022-08-19T11:06:33;7.40;;;5.80;;
7933;SDS011;4012;48.896;9.192;2022-08-19T11:08:59;11.70;;;6.50;;
7933;SDS011;4012;48.896;9.192;2022-08-19T11:11:25;6.77;;;5.60;;
7933;SDS011;4012;48.896;9.192;2022-08-19T11:13:51;8.57;;;5.63;;
7933;SDS011;4012;48.896;9.192;2022-08-19T11:16:19;7.57;;;5.80;;
7933;SDS011;4012;48.896;9.192;2022-08-19T11:18:54;8.10;;;6.30;;
7933;SDS011;4012;48.896;9.192;2022-08-19T11:23:57;7.20;;;5.97;;
7933;SDS011;4012;48.896;9.192;2022-08-19T11:26:29;7.17;;;6.37;;
7933;SDS011;4012;48.896;9.192;2022-08-19T11:28:56;7.40;;;5.83;;
7933;SDS011;4012;48.896;9.192;2022-08-19T11:31:30;7.47;;;6.20;;
7933;SDS011;4012;48.896;9.192;2022-08-19T11:33:57;11.07;;;7.00;;
7933;SDS011;4012;48.896;9.192;2022-08-19T11:36:25;9.87;;;6.20;;
7933;SDS011;4012;48.896;9.192;2022-08-19T11:38:52;15.17;;;7.10;;
7933;SDS011;4012;48.896;9.192;2022-08-19T11:41:18;7.57;;;6.20;;
7933;SDS011;4012;48.896;9.192;2022-08-19T11:43:45;6.83;;;6.23;;
7933;SDS011;4012;48.896;9.192;2022-08-19T11:46:13;9.50;;;6.80;;
7933;SDS011;4012;48.896;9.192;2022-08-19T11:48:40;8.43;;;7.00;;
7933;SDS011;4012;48.896;9.192;2022-08-19T11:51:07;8.77;;;7.33;;
7933;SDS011;4012;48.896;9.192;2022-08-19T11:53:34;8.60;;;6.30;;
7933;SDS011;4012;48.896;9.192;2022-08-19T11:56:01;7.70;;;7.00;;
7933;SDS011;4012;48.896;9.192;2022-08-19T11:58:28;7.03;;;6.07;;
7933;SDS011;4012;48.896;9.192;2022-08-19T12:00:56;8.93;;;7.40;;
7933;SDS011;4012;48.896;9.192;2022-08-19T12:03:22;12.00;;;6.80;;
7933;SDS011;4012;48.896;9.192;2022-08-19T12:05:48;8.17;;;7.47;;
7933;SDS011;4012;48.896;9.192;2022-08-19T12:08:15;10.53;;;6.83;;
7933;SDS011;4012;48.896;9.192;2022-08-19T12:10:41;7.87;;;7.07;;
7933;SDS011;4012;48.896;9.192;2022-08-19T12:13:07;10.03;;;7.50;;
7933;SDS011;4012;48.896;9.192;2022-08-19T12:15:40;7.73;;;7.07;;
7933;SDS011;4012;48.896;9.192;2022-08-19T12:18:06;7.83;;;7.10;;
7933;SDS011;4012;48.896;9.192;2022-08-19T12:20:36;9.00;;;6.70;;
7933;SDS011;4012;48.896;9.192;2022-08-19T12:23:04;9.33;;;8.43;;
7933;SDS011;4012;48.896;9.192;2022-08-19T12:25:30;9.07;;;6.90;;
7933;SDS011;4012;48.896;9.192;2022-08-19T12:27:57;9.30;;;7.00;;
7933;SDS011;4012;48.896;9.192;2022-08-19T12:30:23;7.67;;;6.70;;
7933;SDS011;4012;48.896;9.192;2022-08-19T12:32:49;7.33;;;6.67;;
7933;SDS011;4012;48.896;9.192;2022-08-19T12:35:16;10.93;;;7.20;;
7933;SDS011;4012;48.896;9.192;2022-08-19T12:37:45;11.60;;;8.23;;
7933;SDS011;4012;48.896;9.192;2022-08-19T12:40:12;7.73;;;6.17;;
7933;SDS011;4012;48.896;9.192;2022-08-19T12:42:39;8.77;;;6.73;;
7933;SDS011;4012;48.896;9.192;2022-08-19T12:45:10;6.40;;;5.80;;
7933;SDS011;4012;48.896;9.192;2022-08-19T12:47:37;6.80;;;6.20;;
7933;SDS011;4012;48.896;9.192;2022-08-19T12:50:03;7.00;;;6.30;;
7933;SDS011;4012;48.896;9.192;2022-08-19T12:52:31;7.73;;;6.20;;
7933;SDS011;4012;48.896;9.192;2022-08-19T12:54:57;6.53;;;5.83;;
7933;SDS011;4012;48.896;9.192;2022-08-19T12:57:23;6.90;;;6.27;;
7933;SDS011;4012;48.896;9.192;2022-08-19T12:59:52;9.13;;;6.20;;
7933;SDS011;4012;48.896;9.192;2022-08-19T13:02:18;8.10;;;5.60;;
7933;SDS011;4012;48.896;9.192;2022-08-19T13:04:44;9.33;;;5.53;;
7933;SDS011;4012;48.896;9.192;2022-08-19T13:07:10;5.83;;;5.33;;
7933;SDS011;4012;48.896;9.192;2022-08-19T13:09:36;7.93;;;4.63;;
7933;SDS011;4012;48.896;9.192;2022-08-19T13:12:03;5.30;;;4.80;;
7933;SDS011;4012;48.896;9.192;2022-08-19T13:14:35;6.63;;;5.23;;
7933;SDS011;4012;48.896;9.192;2022-08-19T13:17:01;7.23;;;5.43;;
7933;SDS011;4012;48.896;9.192;2022-08-19T13:19:27;6.80;;;5.27;;
7933;SDS011;4012;48.896;9.192;2022-08-19T13:21:53;6.30;;;5.23;;
7933;SDS011;4012;48.896;9.192;2022-08-19T13:24:20;6.23;;;5.30;;
7933;SDS011;4012;48.896;9.192;2022-08-19T13:26:46;7.43;;;5.50;;
7933;SDS011;4012;48.896;9.192;2022-08-19T13:29:12;6.27;;;5.20;;
7933;SDS011;4012;48.896;9.192;2022-08-19T13:31:57;9.57;;;5.57;;
7933;SDS011;4012;48.896;9.192;2022-08-19T13:34:41;8.57;;;5.97;;
7933;SDS011;4012;48.896;9.192;2022-08-19T13:37:07;7.77;;;5.90;;
7933;SDS011;4012;48.896;9.192;2022-08-19T13:39:33;7.00;;;5.43;;
7933;SDS011;4012;48.896;9.192;2022-08-19T13:42:00;8.13;;;5.53;;
7933;SDS011;4012;48.896;9.192;2022-08-19T13:44:27;6.67;;;5.97;;
7933;SDS011;4012;48.896;9.192;2022-08-19T13:46:54;6.67;;;5.40;;
7933;SDS011;4012;48.896;9.192;2022-08-19T13:49:27;6.53;;;5.80;;
7933;SDS011;4012;48.896;9.192;2022-08-19T13:51:55;7.77;;;5.80;;
7933;SDS011;4012;48.896;9.192;2022-08-19T13:54:21;12.67;;;8.80;;
7933;SDS011;4012;48.896;9.192;2022-08-19T13:56:46;10.23;;;9.23;;
7933;SDS011;4012;48.896;9.192;2022-08-19T13:59:12;14.23;;;12.70;;
7933;SDS011;4012;48.896;9.192;2022-08-19T14:01:38;17.63;;;12.73;;
7933;SDS011;4012;48.896;9.192;2022-08-19T14:04:04;16.43;;;14.07;;
7933;SDS011;4012;48.896;9.192;2022-08-19T14:06:30;24.97;;;20.77;;
7933;SDS011;4012;48.896;9.192;2022-08-19T14:08:56;21.53;;;16.73;;
7933;SDS011;4012;48.896;9.192;2022-08-19T14:11:22;20.23;;;16.87;;
7933;SDS011;4012;48.896;9.192;2022-08-19T14:13:48;19.07;;;17.27;;
7933;SDS011;4012;48.896;9.192;2022-08-19T14:16:14;19.83;;;17.90;;
7933;SDS011;4012;48.896;9.192;2022-08-19T14:18:41;19.27;;;17.57;;
7933;SDS011;4012;48.896;9.192;2022-08-19T14:21:07;20.73;;;17.40;;
7933;SDS011;4012;48.896;9.192;2022-08-19T14:23:39;20.53;;;18.33;;
7933;SDS011;4012;48.896;9.192;2022-08-19T14:26:06;19.60;;;17.57;;
7933;SDS011;4012;48.896;9.192;2022-08-19T14:28:37;21.13;;;18.93;;
7933;SDS011;4012;48.896;9.192;2022-08-19T14:31:06;21.40;;;19.20;;
7933;SDS011;4012;48.896;9.192;2022-08-19T14:33:35;23.40;;;19.80;;
7933;SDS011;4012;48.896;9.192;2022-08-19T14:36:01;21.83;;;19.53;;
7933;SDS011;4012;48.896;9.192;2022-08-19T14:38:27;23.53;;;20.80;;
7933;SDS011;4012;48.896;9.192;2022-08-19T14:40:56;23.13;;;20.70;;
7933;SDS011;4012;48.896;9.192;2022-08-19T14:43:40;22.67;;;20.37;;
7933;SDS011;4012;48.896;9.192;2022-08-19T14:46:06;22.23;;;20.03;;
7933;SDS011;4012;48.896;9.192;2022-08-19T14:48:32;22.00;;;20.00;;
7933;SDS011;4012;48.896;9.192;2022-08-19T14:50:58;24.47;;;19.90;;
7933;SDS011;4012;48.896;9.192;2022-08-19T14:53:24;22.20;;;19.90;;
7933;SDS011;4012;48.896;9.192;2022-08-19T14:55:50;22.27;;;20.00;;
7933;SDS011;4012;48.896;9.192;2022-08-19T14:58:16;21.10;;;18.73;;
7933;SDS011;4012;48.896;9.192;2022-08-19T15:00:41;21.53;;;19.30;;
7933;SDS011;4012;48.896;9.192;2022-08-19T15:03:07;20.70;;;18.53;;
7933;SDS011;4012;48.896;9.192;2022-08-19T15:05:41;21.30;;;19.30;;
7933;SDS011;4012;48.896;9.192;2022-08-19T15:08:06;22.90;;;20.53;;
7933;SDS011;4012;48.896;9.192;2022-08-19T15:10:32;23.27;;;21.00;;